FMCV

Ouani Airport

Ouani, Comoros
METAR FMCV 250700Z 26004KT 9999 FEW020 30/21 Q1013
Observed Flight Rules
Apr-25 @ 07:00 UTC (20 hours ago) Visual Flight Rules
Wind Visibility Clouds
260° at 4 knots 10,000+ meters
  • Few at 2,000' AGL
Temperatures Readings
Current 30°C / 86°F
Dewpoint 21°C / 70°F
Humidity 59%
Altimeter 29.91" Hg
Pressure 1013 hPa
Elevation 12
METAR FMCV 250700Z 26004KT 9999 FEW020 30/21 Q1013
Observed Flight Rules
Apr-25 @ 07:00 UTC
(20 hours ago)
VFR
Wind Visibility
260° at 4 knots 10,000+ meters
Clouds
  • Few at 2,000' AGL
Temperature Dewpoint
30°C / 86°F 21°C / 70°F
Humidity Altimeter Pressure
59% 29.91" Hg 1013 hPa